createdAt,value
2023-02-06T00:01:29.221Z,-3.80
2023-02-06T00:03:55.697Z,-4.00
2023-02-06T00:06:22.207Z,-4.00
2023-02-06T00:08:48.723Z,-4.00
2023-02-06T00:11:16.756Z,-4.00
2023-02-06T00:13:45.004Z,-4.00
2023-02-06T00:16:30.596Z,-4.10
2023-02-06T00:18:59.074Z,-4.40
2023-02-06T00:21:28.258Z,-4.30
2023-02-06T00:23:59.313Z,-4.30
2023-02-06T00:26:26.158Z,-4.30
2023-02-06T00:28:53.013Z,-4.40
2023-02-06T00:31:19.835Z,-4.20
2023-02-06T00:33:46.711Z,-4.10
2023-02-06T00:36:13.171Z,-4.10
2023-02-06T00:38:39.647Z,-4.00
2023-02-06T00:41:06.395Z,-3.90
2023-02-06T00:43:33.442Z,-3.90
2023-02-06T00:46:00.193Z,-3.90
2023-02-06T00:48:26.925Z,-4.10
2023-02-06T00:50:54.900Z,-4.30
2023-02-06T00:53:21.927Z,-4.40
2023-02-06T00:55:48.374Z,-4.50
2023-02-06T00:58:15.092Z,-4.40
2023-02-06T01:00:41.737Z,-4.40
2023-02-06T01:03:08.209Z,-4.40
2023-02-06T01:05:35.092Z,-4.40
2023-02-06T01:08:04.247Z,-4.40
2023-02-06T01:10:31.329Z,-4.40
2023-02-06T01:12:57.834Z,-4.40
2023-02-06T01:15:24.395Z,-4.50
2023-02-06T01:17:50.888Z,-4.60
2023-02-06T01:20:17.464Z,-4.60
2023-02-06T01:22:43.989Z,-4.70
2023-02-06T01:25:10.469Z,-4.60
2023-02-06T01:27:38.081Z,-4.50
2023-02-06T01:30:06.985Z,-4.70
2023-02-06T01:32:38.172Z,-4.80
2023-02-06T01:35:07.359Z,-4.80
2023-02-06T01:37:35.226Z,-4.60
2023-02-06T01:40:02.517Z,-4.70
2023-02-06T01:42:29.007Z,-4.60
2023-02-06T01:47:09.281Z,-4.60
2023-02-06T01:49:49.116Z,-4.60
2023-02-06T01:52:25.426Z,-4.60
2023-02-06T01:54:58.493Z,-4.50
2023-02-06T01:57:27.271Z,-4.70
2023-02-06T02:00:02.274Z,-4.60
2023-02-06T02:02:31.821Z,-4.60
2023-02-06T02:05:01.267Z,-4.50
2023-02-06T02:07:35.951Z,-4.70
2023-02-06T02:10:03.463Z,-4.70
2023-02-06T02:12:30.348Z,-4.80
2023-02-06T02:14:58.613Z,-4.80
2023-02-06T02:17:50.548Z,-5.00
2023-02-06T02:21:15.816Z,-5.10
2023-02-06T02:27:18.469Z,-4.90
2023-02-06T02:32:37.653Z,-4.80
2023-02-06T02:35:23.795Z,-5.10
2023-02-06T02:38:27.970Z,-5.10
2023-02-06T02:41:55.707Z,-5.10
2023-02-06T02:44:43.225Z,-5.00
2023-02-06T02:47:16.500Z,-5.00
2023-02-06T02:49:45.406Z,-5.10
2023-02-06T02:52:13.266Z,-5.20
2023-02-06T02:54:39.827Z,-5.20
2023-02-06T02:57:17.092Z,-5.20
2023-02-06T02:59:47.501Z,-5.10
2023-02-06T03:02:30.626Z,-5.20
2023-02-06T03:05:07.190Z,-5.30
2023-02-06T03:11:29.818Z,-5.30
2023-02-06T03:14:13.973Z,-5.20
2023-02-06T03:16:54.094Z,-5.10
2023-02-06T03:19:45.114Z,-5.10
2023-02-06T03:22:14.648Z,-4.90
2023-02-06T03:24:41.108Z,-4.90
2023-02-06T03:27:15.052Z,-5.10
2023-02-06T03:29:44.589Z,-5.30
2023-02-06T03:32:23.303Z,-5.20
2023-02-06T03:35:08.803Z,-5.20
2023-02-06T03:37:37.463Z,-5.30
2023-02-06T03:40:06.892Z,-5.50
2023-02-06T03:42:47.656Z,-5.50
2023-02-06T03:45:30.717Z,-5.50
2023-02-06T03:48:06.227Z,-5.40
2023-02-06T03:50:36.012Z,-5.40
2023-02-06T03:53:04.027Z,-5.30
2023-02-06T03:55:30.837Z,-5.40
2023-02-06T03:58:08.116Z,-5.30
2023-02-06T04:00:38.447Z,-5.30
2023-02-06T04:03:05.458Z,-5.30
2023-02-06T04:05:31.934Z,-5.30
2023-02-06T04:07:58.410Z,-5.20
2023-02-06T04:10:26.311Z,-5.20
2023-02-06T04:12:53.336Z,-5.30
2023-02-06T04:15:19.922Z,-5.30
2023-02-06T04:17:59.459Z,-5.40
2023-02-06T04:20:27.251Z,-5.60
2023-02-06T04:22:53.726Z,-5.60
2023-02-06T04:25:20.214Z,-5.30
2023-02-06T04:27:46.722Z,-5.30
2023-02-06T04:30:14.863Z,-5.30
2023-02-06T04:32:41.320Z,-5.30
2023-02-06T04:35:07.986Z,-5.60
2023-02-06T04:37:34.500Z,-5.70
2023-02-06T04:40:00.961Z,-5.60
2023-02-06T04:42:27.459Z,-5.50
2023-02-06T04:44:53.918Z,-5.60
2023-02-06T04:47:20.547Z,-5.40
2023-02-06T04:49:47.012Z,-5.30
2023-02-06T04:52:13.485Z,-5.30
2023-02-06T04:54:39.961Z,-5.40
2023-02-06T04:57:06.408Z,-5.40
2023-02-06T04:59:32.893Z,-5.30
2023-02-06T05:01:59.371Z,-5.40
2023-02-06T05:04:25.888Z,-5.20
2023-02-06T05:06:52.364Z,-5.20
2023-02-06T05:09:18.865Z,-5.10
2023-02-06T05:11:45.354Z,-5.20
2023-02-06T05:14:11.838Z,-5.20
2023-02-06T05:16:38.523Z,-5.50
2023-02-06T05:19:06.128Z,-5.40
2023-02-06T05:21:32.587Z,-5.40
2023-02-06T05:23:59.080Z,-5.40
2023-02-06T05:26:25.558Z,-5.30
2023-02-06T05:28:52.470Z,-5.30
2023-02-06T05:31:19.326Z,-5.20
2023-02-06T05:33:52.487Z,-5.30
2023-02-06T05:36:20.336Z,-5.40
2023-02-06T05:38:48.135Z,-5.40
2023-02-06T05:41:15.607Z,-5.50
2023-02-06T05:43:42.083Z,-5.50
2023-02-06T05:46:08.796Z,-5.40
2023-02-06T05:48:35.470Z,-5.40
2023-02-06T05:51:02.240Z,-5.60
2023-02-06T05:53:29.059Z,-5.60
2023-02-06T05:55:56.910Z,-5.50
2023-02-06T05:58:23.628Z,-5.50
2023-02-06T06:00:50.135Z,-5.60
2023-02-06T06:03:16.650Z,-5.70
2023-02-06T06:05:43.133Z,-5.60
2023-02-06T06:08:09.580Z,-5.50
2023-02-06T06:10:36.079Z,-5.50
2023-02-06T06:13:02.566Z,-5.50
2023-02-06T06:15:29.247Z,-5.50
2023-02-06T06:17:55.769Z,-5.40
2023-02-06T06:20:22.573Z,-5.50
2023-02-06T06:22:49.041Z,-5.50
2023-02-06T06:25:16.802Z,-5.40
2023-02-06T06:27:43.320Z,-5.40
2023-02-06T06:30:10.908Z,-5.30
2023-02-06T06:32:37.411Z,-5.20
2023-02-06T06:35:04.272Z,-5.10
2023-02-06T06:37:30.801Z,-5.20
2023-02-06T06:39:57.319Z,-5.20
2023-02-06T06:42:23.814Z,-5.10
2023-02-06T06:44:50.403Z,-5.20
2023-02-06T06:47:16.893Z,-5.10
2023-02-06T06:49:43.361Z,-5.10
2023-02-06T06:52:23.124Z,-5.10
2023-02-06T06:54:52.510Z,-4.90
2023-02-06T06:57:20.093Z,-4.70
2023-02-06T06:59:46.629Z,-4.70
2023-02-06T07:02:13.723Z,-4.60
2023-02-06T07:04:40.255Z,-4.50
2023-02-06T07:07:07.309Z,-4.40
2023-02-06T07:09:34.045Z,-4.40
2023-02-06T07:12:00.588Z,-4.30
2023-02-06T07:14:27.085Z,-4.50
2023-02-06T07:16:55.410Z,-4.30
2023-02-06T07:19:21.865Z,-4.20
2023-02-06T07:21:48.348Z,-4.00
2023-02-06T07:24:14.803Z,-3.90
2023-02-06T07:26:41.334Z,-3.80
2023-02-06T07:29:07.837Z,-3.60
2023-02-06T07:31:34.390Z,-3.50
2023-02-06T07:34:01.557Z,-3.30
2023-02-06T07:36:28.099Z,-3.10
2023-02-06T07:38:54.589Z,-3.10
2023-02-06T07:41:21.082Z,-3.00
2023-02-06T07:43:47.581Z,-2.80
2023-02-06T07:46:14.174Z,-2.70
2023-02-06T07:48:41.718Z,-2.60
2023-02-06T07:51:09.483Z,-2.50
2023-02-06T07:53:37.084Z,-2.60
2023-02-06T07:56:14.993Z,-2.70
2023-02-06T07:58:41.683Z,-2.60
2023-02-06T08:01:08.511Z,-2.60
2023-02-06T08:03:36.066Z,-2.60
2023-02-06T08:06:14.083Z,-2.60
2023-02-06T08:08:41.566Z,-2.40
2023-02-06T08:11:12.165Z,-2.10
2023-02-06T08:13:38.945Z,-1.80
2023-02-06T08:16:11.986Z,-1.60
2023-02-06T08:18:39.014Z,-1.30
2023-02-06T08:21:10.999Z,-1.10
2023-02-06T08:23:37.779Z,-1.10
2023-02-06T08:26:17.143Z,-1.10
2023-02-06T08:28:46.671Z,-0.90
2023-02-06T08:31:27.714Z,-0.90
2023-02-06T08:33:55.026Z,-0.70
2023-02-06T08:36:23.388Z,-0.40
2023-02-06T08:38:51.601Z,-0.40
2023-02-06T08:41:27.933Z,-0.20
2023-02-06T08:43:58.058Z,-0.20
2023-02-06T08:46:31.350Z,-0.10
2023-02-06T08:49:05.436Z,0.00
2023-02-06T08:51:34.710Z,0.00
2023-02-06T08:54:05.729Z,0.10
2023-02-06T08:56:35.098Z,0.30
2023-02-06T08:59:02.525Z,0.40
2023-02-06T09:01:32.561Z,0.40
2023-02-06T09:04:03.119Z,0.40
2023-02-06T09:06:30.039Z,0.30
2023-02-06T09:08:57.534Z,0.40
2023-02-06T09:11:26.088Z,0.40
2023-02-06T09:13:57.174Z,0.50
2023-02-06T09:16:25.702Z,0.80
2023-02-06T09:18:54.225Z,0.80
2023-02-06T09:21:24.634Z,0.60
2023-02-06T09:23:55.338Z,0.50
2023-02-06T09:26:25.573Z,0.60
2023-02-06T09:28:54.004Z,0.60
2023-02-06T09:31:20.569Z,0.60
2023-02-06T09:33:47.073Z,0.70
2023-02-06T09:36:17.619Z,0.80
2023-02-06T09:38:48.158Z,0.80
2023-02-06T09:42:06.030Z,0.70
2023-02-06T09:45:20.944Z,0.80
2023-02-06T09:48:19.841Z,0.70
2023-02-06T09:52:45.241Z,0.80
2023-02-06T09:58:03.951Z,0.80
2023-02-06T10:03:23.076Z,0.60
2023-02-06T10:06:21.630Z,0.90
2023-02-06T10:10:05.596Z,1.10
2023-02-06T10:12:47.055Z,1.20
2023-02-06T10:15:40.999Z,1.40
2023-02-06T10:20:11.518Z,1.50
2023-02-06T10:23:15.287Z,1.40
2023-02-06T10:26:18.194Z,1.40
2023-02-06T10:28:55.818Z,1.50
2023-02-06T10:33:24.802Z,1.60
2023-02-06T10:40:39.020Z,1.70
2023-02-06T10:43:41.004Z,1.90
2023-02-06T10:49:36.939Z,1.80
2023-02-06T10:52:25.615Z,1.80
2023-02-06T10:56:31.931Z,1.80
2023-02-06T10:59:39.665Z,1.80
2023-02-06T11:02:43.324Z,1.80
2023-02-06T11:05:20.916Z,1.90
2023-02-06T11:07:56.701Z,2.00
2023-02-06T11:10:25.757Z,2.10
2023-02-06T11:13:24.360Z,2.20
2023-02-06T11:16:14.689Z,2.30
2023-02-06T11:18:48.211Z,2.10
2023-02-06T11:21:46.228Z,2.00
2023-02-06T11:24:17.024Z,1.80
2023-02-06T11:27:19.925Z,1.80
2023-02-06T11:29:51.974Z,1.80
2023-02-06T11:32:43.923Z,1.90
2023-02-06T11:35:36.764Z,2.10
2023-02-06T11:38:55.925Z,2.40
2023-02-06T11:41:22.387Z,2.50
2023-02-06T11:43:53.060Z,2.60
2023-02-06T11:46:26.562Z,2.70
2023-02-06T11:49:35.158Z,2.80
2023-02-06T11:52:03.175Z,2.70
2023-02-06T11:54:34.486Z,2.70
2023-02-06T11:57:27.117Z,2.70
2023-02-06T12:00:01.390Z,2.70
2023-02-06T12:02:37.309Z,2.70
2023-02-06T12:05:18.206Z,2.70
2023-02-06T12:08:15.669Z,2.60
2023-02-06T12:11:12.732Z,2.50
2023-02-06T12:13:48.310Z,2.50
2023-02-06T12:16:23.192Z,2.50
2023-02-06T12:18:57.057Z,2.50
2023-02-06T12:21:48.028Z,2.40
2023-02-06T12:26:37.700Z,2.40
2023-02-06T12:29:19.175Z,2.40
2023-02-06T12:32:17.591Z,2.30
2023-02-06T12:34:59.811Z,2.30
2023-02-06T12:38:04.213Z,2.10
2023-02-06T12:42:24.344Z,2.30
2023-02-06T12:45:30.840Z,2.40
2023-02-06T12:48:11.888Z,2.50
2023-02-06T12:51:24.575Z,2.50
2023-02-06T12:54:05.827Z,2.50
2023-02-06T12:57:22.432Z,2.40
2023-02-06T13:00:21.908Z,2.40
2023-02-06T13:04:27.918Z,2.30
2023-02-06T13:07:12.461Z,2.30
2023-02-06T13:09:49.337Z,2.40
2023-02-06T13:12:22.973Z,2.30
2023-02-06T13:15:01.091Z,2.30
2023-02-06T13:17:38.286Z,2.10
2023-02-06T13:20:26.026Z,1.90
2023-02-06T13:23:03.262Z,1.90
2023-02-06T13:25:50.810Z,2.10
2023-02-06T13:28:57.811Z,2.10
2023-02-06T13:31:27.840Z,2.20
2023-02-06T13:33:59.243Z,2.10
2023-02-06T13:36:51.160Z,2.00
2023-02-06T13:39:31.770Z,2.10
2023-02-06T13:42:26.909Z,2.10
2023-02-06T13:44:54.113Z,2.10
2023-02-06T13:49:15.670Z,2.10
2023-02-06T13:56:28.368Z,2.10
2023-02-06T13:59:05.191Z,2.30
2023-02-06T14:01:32.818Z,2.30
2023-02-06T14:04:00.570Z,2.40
2023-02-06T14:10:12.530Z,2.30
2023-02-06T14:15:32.849Z,2.40
2023-02-06T14:21:51.384Z,2.40
2023-02-06T14:27:34.856Z,2.20
2023-02-06T14:36:22.884Z,2.10
2023-02-06T14:40:42.509Z,2.10
2023-02-06T14:43:18.346Z,2.00
2023-02-06T14:46:06.094Z,2.00
2023-02-06T14:48:51.320Z,2.00
2023-02-06T14:51:30.806Z,2.00
2023-02-06T14:54:01.705Z,1.90
2023-02-06T14:56:37.339Z,1.90
2023-02-06T14:59:18.147Z,1.90
2023-02-06T15:01:49.329Z,1.80
2023-02-06T15:04:26.098Z,1.70
2023-02-06T15:06:59.667Z,1.50
2023-02-06T15:09:58.401Z,1.60
2023-02-06T15:12:28.271Z,1.50
2023-02-06T15:16:01.009Z,1.40
2023-02-06T15:18:27.777Z,1.30
2023-02-06T15:21:01.717Z,1.30
2023-02-06T15:24:24.316Z,1.10
2023-02-06T15:28:07.085Z,1.10
2023-02-06T15:30:36.719Z,1.00
2023-02-06T15:33:10.500Z,1.00
2023-02-06T15:35:40.876Z,1.00
2023-02-06T15:38:14.754Z,0.90
2023-02-06T15:40:54.000Z,0.80
2023-02-06T15:43:24.639Z,0.80
2023-02-06T15:45:55.471Z,0.80
2023-02-06T15:48:53.086Z,0.70
2023-02-06T15:51:38.239Z,0.70
2023-02-06T15:54:19.378Z,0.50
2023-02-06T15:57:03.015Z,0.50
2023-02-06T15:59:34.261Z,0.40
2023-02-06T16:02:03.164Z,0.40
2023-02-06T16:04:41.525Z,0.40
2023-02-06T16:07:24.001Z,0.30
2023-02-06T16:10:22.849Z,0.30
2023-02-06T16:12:50.742Z,0.20
2023-02-06T16:15:38.916Z,0.20
2023-02-06T16:18:34.811Z,0.20
2023-02-06T16:21:26.120Z,0.00
2023-02-06T16:24:15.648Z,-0.10
2023-02-06T16:26:48.813Z,-0.10
2023-02-06T16:29:31.230Z,-0.10
2023-02-06T16:32:02.352Z,-0.10
2023-02-06T16:34:50.555Z,-0.10
2023-02-06T16:37:24.508Z,-0.10
2023-02-06T16:39:51.965Z,0.00
2023-02-06T16:42:22.395Z,0.00
2023-02-06T16:45:00.366Z,-0.10
2023-02-06T16:47:27.055Z,-0.20
2023-02-06T16:49:53.530Z,-0.20
2023-02-06T16:52:32.024Z,-0.20
2023-02-06T16:54:59.840Z,-0.30
2023-02-06T16:57:41.027Z,-0.30
2023-02-06T17:00:31.617Z,-0.20
2023-02-06T17:02:58.892Z,-0.30
2023-02-06T17:05:28.324Z,-0.30
2023-02-06T17:07:55.100Z,-0.20
2023-02-06T17:10:25.342Z,-0.20
2023-02-06T17:12:52.177Z,-0.20
2023-02-06T17:15:19.708Z,-0.10
2023-02-06T17:17:46.537Z,-0.20
2023-02-06T17:20:39.397Z,-0.20
2023-02-06T17:23:06.840Z,-0.30
2023-02-06T17:25:33.468Z,-0.40
2023-02-06T17:28:00.712Z,-0.30
2023-02-06T17:30:27.414Z,-0.30
2023-02-06T17:32:54.544Z,-0.30
2023-02-06T17:35:21.011Z,-0.30
2023-02-06T17:37:48.450Z,-0.30
2023-02-06T17:40:29.377Z,-0.30
2023-02-06T17:42:58.269Z,-0.30
2023-02-06T17:45:25.381Z,-0.30
2023-02-06T17:47:52.053Z,-0.20
2023-02-06T17:50:22.051Z,-0.30
2023-02-06T17:52:48.916Z,-0.30
2023-02-06T17:55:15.946Z,-0.30
2023-02-06T17:57:42.398Z,-0.30
2023-02-06T18:00:14.627Z,-0.30
2023-02-06T18:02:41.434Z,-0.30
2023-02-06T18:05:08.643Z,-0.20
2023-02-06T18:07:37.801Z,-0.10
2023-02-06T18:10:06.089Z,-0.20
2023-02-06T18:12:32.560Z,-0.10
2023-02-06T18:14:59.037Z,-0.10
2023-02-06T18:17:25.819Z,-0.10
2023-02-06T18:19:52.458Z,-0.20
2023-02-06T18:22:21.472Z,-0.30
2023-02-06T18:24:50.416Z,-0.20
2023-02-06T18:27:18.972Z,-0.20
2023-02-06T18:29:50.023Z,-0.10
2023-02-06T18:32:18.248Z,-0.10
2023-02-06T18:34:45.558Z,-0.10
2023-02-06T18:37:12.040Z,-0.10
2023-02-06T18:39:38.753Z,0.00
2023-02-06T18:42:23.898Z,0.10
2023-02-06T18:44:50.380Z,0.00
2023-02-06T18:47:18.106Z,0.00
2023-02-06T18:49:44.571Z,0.00
2023-02-06T18:52:11.059Z,0.00
2023-02-06T18:54:38.793Z,0.00
2023-02-06T18:57:05.892Z,0.00
2023-02-06T18:59:32.390Z,-0.10
2023-02-06T19:01:58.970Z,-0.10
2023-02-06T19:04:25.662Z,-0.20
2023-02-06T19:06:52.132Z,-0.20
2023-02-06T19:09:21.311Z,-0.30
2023-02-06T19:11:48.087Z,-0.40
2023-02-06T19:14:17.272Z,-0.50
2023-02-06T19:16:46.627Z,-0.50
2023-02-06T19:19:13.634Z,-0.50
2023-02-06T19:21:40.117Z,-0.50
2023-02-06T19:24:07.373Z,-0.50
2023-02-06T19:26:34.082Z,-0.50
2023-02-06T19:29:00.945Z,-0.50
2023-02-06T19:31:27.697Z,-0.60
2023-02-06T19:33:58.820Z,-0.70
2023-02-06T19:36:28.257Z,-0.70
2023-02-06T19:38:59.341Z,-0.90
2023-02-06T19:41:29.596Z,-1.00
2023-02-06T19:43:59.725Z,-1.10
2023-02-06T19:46:27.296Z,-1.20
2023-02-06T19:48:54.953Z,-1.30
2023-02-06T19:51:34.589Z,-1.40
2023-02-06T19:54:01.086Z,-1.40
2023-02-06T19:56:39.042Z,-1.50
2023-02-06T19:59:19.247Z,-1.60
2023-02-06T20:01:48.852Z,-1.80
2023-02-06T20:04:16.290Z,-2.00
2023-02-06T20:06:44.065Z,-2.00
2023-02-06T20:09:15.454Z,-2.00
2023-02-06T20:11:42.681Z,-2.00
2023-02-06T20:14:11.428Z,-2.00
2023-02-06T20:16:40.878Z,-2.10
2023-02-06T20:19:15.482Z,-2.30
2023-02-06T20:21:47.164Z,-2.40
2023-02-06T20:24:21.144Z,-2.50
2023-02-06T20:26:54.563Z,-2.40
2023-02-06T20:29:35.859Z,-2.40
2023-02-06T20:32:05.552Z,-2.50
2023-02-06T20:34:32.499Z,-2.70
2023-02-06T20:36:59.114Z,-2.70
2023-02-06T20:39:26.523Z,-2.90
2023-02-06T20:41:53.788Z,-3.00
2023-02-06T20:44:20.620Z,-2.90
2023-02-06T20:46:47.625Z,-3.00
2023-02-06T20:49:24.277Z,-3.10
2023-02-06T20:51:51.714Z,-3.10
2023-02-06T20:54:20.255Z,-3.00
2023-02-06T20:56:46.910Z,-2.90
2023-02-06T20:59:15.954Z,-3.00
2023-02-06T21:01:43.581Z,-3.10
2023-02-06T21:04:12.861Z,-3.00
2023-02-06T21:06:40.555Z,-3.00
2023-02-06T21:09:08.602Z,-3.10
2023-02-06T21:11:41.726Z,-3.40
2023-02-06T21:14:09.492Z,-3.50
2023-02-06T21:16:37.507Z,-3.60
2023-02-06T21:19:07.752Z,-3.60
2023-02-06T21:21:36.249Z,-3.50
2023-02-06T21:24:03.476Z,-3.60
2023-02-06T21:26:30.920Z,-3.60
2023-02-06T21:28:59.065Z,-3.50
2023-02-06T21:31:34.689Z,-3.50
2023-02-06T21:34:08.339Z,-3.40
2023-02-06T21:36:38.043Z,-3.50
2023-02-06T21:39:05.710Z,-3.50
2023-02-06T21:41:33.008Z,-3.40
2023-02-06T21:43:59.541Z,-3.30
2023-02-06T21:46:28.344Z,-3.30
2023-02-06T21:48:54.877Z,-3.30
2023-02-06T21:51:22.367Z,-3.50
2023-02-06T21:53:49.171Z,-3.80
2023-02-06T21:56:19.931Z,-4.00
2023-02-06T21:58:47.469Z,-4.00
2023-02-06T22:01:16.794Z,-3.90
2023-02-06T22:03:45.998Z,-3.90
2023-02-06T22:06:13.232Z,-4.10
2023-02-06T22:08:44.526Z,-4.20
2023-02-06T22:11:24.233Z,-4.30
2023-02-06T22:13:51.511Z,-4.30
2023-02-06T22:16:22.186Z,-4.20
2023-02-06T22:18:49.923Z,-4.30
2023-02-06T22:21:21.312Z,-4.40
2023-02-06T22:23:50.644Z,-4.30
2023-02-06T22:26:19.675Z,-4.20
2023-02-06T22:28:46.613Z,-4.30
2023-02-06T22:31:23.514Z,-4.40
2023-02-06T22:33:50.997Z,-4.50
2023-02-06T22:36:21.941Z,-4.50
2023-02-06T22:39:00.906Z,-4.40
2023-02-06T22:41:28.802Z,-4.30
2023-02-06T22:43:55.676Z,-4.30
2023-02-06T22:46:30.298Z,-4.30
2023-02-06T22:48:57.281Z,-4.20
2023-02-06T22:51:24.555Z,-4.10
2023-02-06T22:53:51.886Z,-4.20
2023-02-06T22:56:30.511Z,-4.40
2023-02-06T22:59:13.186Z,-4.30
2023-02-06T23:01:52.301Z,-4.30
2023-02-06T23:04:26.576Z,-4.40
2023-02-06T23:06:54.050Z,-4.50
2023-02-06T23:09:34.261Z,-4.60
2023-02-06T23:12:01.891Z,-4.60
2023-02-06T23:14:30.637Z,-4.50
2023-02-06T23:16:59.847Z,-4.40
2023-02-06T23:19:26.767Z,-4.50
2023-02-06T23:21:53.445Z,-4.60
2023-02-06T23:24:20.323Z,-4.80
2023-02-06T23:26:50.384Z,-4.70
2023-02-06T23:29:19.319Z,-4.60
2023-02-06T23:31:47.470Z,-4.60
2023-02-06T23:34:16.200Z,-4.70
2023-02-06T23:36:43.160Z,-4.80
2023-02-06T23:39:10.982Z,-4.90
2023-02-06T23:41:37.513Z,-4.90
2023-02-06T23:44:07.077Z,-4.80
2023-02-06T23:46:36.518Z,-5.00
2023-02-06T23:49:03.926Z,-5.10
2023-02-06T23:51:31.311Z,-5.20
2023-02-06T23:53:57.962Z,-5.20
2023-02-06T23:56:28.980Z,-5.10
2023-02-06T23:58:57.881Z,-5.10
